Fairdale, ND (58229)

7:31 AM CDT on March 28, 2015 (GMT -0500)
Cavalier | | Change Station
CLOSE
Current Station
Airport
Location: Cavalier,
Elevation: 892 ft
Nearby Weather Stations

Elev 892 ft 48.78 °N, 97.63 °W | Updated 16 minutes ago

Fog
Fog
25 °F
Feels Like 15 °F
N
9
Wind Variable Wind from South
Gusts 24 mph

Today
High -- | Low -- °F
--% Chance of Precip.
Yesterday
High -- | Low -- °F
Precip. -- in
7:19 AM 7:57 PM
First Quarter, 62% visible
Pressure 30.05 in
Visibility -9999.0 miles
Clouds
Windchill 15 °F
Dew Point 23 °F
Humidity 93%
Rainfall 0.00 in
Snow Depth Not available.
UV Not available.
Pollen 2.10 out of 12
Air Quality Not available.
Flu Activity Not available.
METAR K2C8 281215Z AUTO 17008KT M04/M05 A3005 RMK AO2

More Conditions Fewer Conditions

Pressure 30.05 in
Visibility -9999.0 miles
Clouds
Windchill 15 °F
Dew Point 23 °F
Humidity 93%
Rainfall 0.00 in
Snow Depth Not available.
UV Not available.
Pollen 2.10 out of 12
Air Quality Not available.
Flu Activity Not available.
METAR K2C8 281215Z AUTO 17008KT M04/M05 A3005 RMK AO2

More Conditions Fewer Conditions

10-Day Weather Forecast

Almanac

Astronomy

Mar. 28, 2015 Rise Set
Actual Time
Civil Twilight
Nautical Twilight
Astronomical Twilight
Moon
Length of Visible Light
Length of Day
Tomorrow will be .
, % of the Moon is Illuminated

Today's Extremes

State Highs State Lows

Community

WunderPhotos

Upload Photos

1,808,966 photos uploaded!

WunderBlogs® & News

Nearby

Air Quality

  Air Quality AQ Index Pollutant
Not available.

Snow Depth

Station Depth Elevation

Earthquake Activity

City Distance Mag. Time & Date
Minimum magnitude displayed is 2.5.

Coastal Water Temperatures

Place Temperature

Stations

Nearby Weather Stations

Station Location Temp. Windchill Dew Point Humidity Wind Precip. Elev Updated Type